Time;durP1;ratioP1;P1;durP2;ratioP2;P2;SDS_P1;SDS_P2;PMS_P1;PMS_P2;Temp;Humidity;BMP_temperature;BMP_pressure;BME280_temperature;BME280_humidity;BME280_pressure;Samples;Min_cycle;Max_cycle;Signal;HPM_P1;HPM_P2
2022/08/28 00:01:57;;;;;;;4.27;2.10;;;19.00;1.00;;;;;;6108038;23;20207;-92
2022/08/28 00:04:23;;;;;;;5.50;2.43;;;19.00;1.00;;;;;;6105702;23;20168;-93
2022/08/28 00:06:49;;;;;;;8.03;2.10;;;19.00;1.00;;;;;;6103971;23;20158;-92
2022/08/28 00:09:14;;;;;;;5.63;2.10;;;19.00;1.00;;;;;;6082662;23;20216;-95
2022/08/28 00:11:40;;;;;;;6.87;2.83;;;19.00;1.00;;;;;;6109524;23;20577;-92
2022/08/28 00:14:08;;;;;;;5.27;2.10;;;19.10;1.00;;;;;;6104997;23;20190;-93
2022/08/28 00:16:34;;;;;;;6.43;2.33;;;19.00;1.00;;;;;;6104453;23;20149;-93
2022/08/28 00:19:00;;;;;;;8.50;2.47;;;18.90;1.00;;;;;;6079240;23;20529;-93
2022/08/28 00:21:32;;;;;;;5.57;1.87;;;19.00;1.00;;;;;;6104440;23;20610;-95
2022/08/28 00:23:59;;;;;;;5.43;2.20;;;18.90;1.00;;;;;;6134159;23;20230;-93
2022/08/28 00:29:09;;;;;;;5.27;1.87;;;18.80;1.00;;;;;;6111068;23;20218;-92
2022/08/28 00:31:38;;;;;;;7.40;2.47;;;18.80;1.00;;;;;;6107986;23;20479;-95
2022/08/28 00:34:05;;;;;;;6.73;1.97;;;18.90;1.00;;;;;;6105710;23;20170;-93
2022/08/28 00:36:32;;;;;;;4.63;2.30;;;18.90;1.00;;;;;;6104094;23;20162;-94
2022/08/28 00:38:59;;;;;;;5.10;2.10;;;18.90;1.00;;;;;;6104967;23;20152;-94
2022/08/28 00:41:26;;;;;;;4.83;2.03;;;18.80;1.00;;;;;;6104501;23;20151;-93
2022/08/28 00:44:08;;;;;;;4.47;1.90;;;18.90;1.00;;;;;;6105355;23;20572;-93
2022/08/28 00:46:37;;;;;;;6.63;2.33;;;18.70;1.00;;;;;;6104347;23;20556;-94
2022/08/28 00:49:03;;;;;;;5.73;2.23;;;18.70;1.00;;;;;;6102494;23;20187;-93
2022/08/28 00:54:14;;;;;;;5.83;2.60;;;18.80;1.00;;;;;;6131200;23;20163;-94
2022/08/28 00:56:40;;;;;;;6.33;2.63;;;18.70;1.00;;;;;;6108808;23;20593;-94
2022/08/28 00:59:14;;;;;;;7.40;2.27;;;18.80;1.00;;;;;;6122092;23;20178;-95
2022/08/28 01:01:40;;;;;;;5.83;2.57;;;18.80;1.00;;;;;;6106736;23;20162;-96
2022/08/28 01:04:06;;;;;;;7.10;2.67;;;18.70;1.00;;;;;;6082149;23;20189;-94
2022/08/28 01:06:34;;;;;;;5.50;2.73;;;18.70;1.00;;;;;;6104050;23;20478;-94
2022/08/28 01:09:00;;;;;;;5.70;2.53;;;18.80;1.00;;;;;;6132372;23;20238;-95
2022/08/28 01:11:27;;;;;;;6.17;2.67;;;18.80;1.00;;;;;;6107418;23;20429;-93
2022/08/28 01:13:58;;;;;;;5.93;2.33;;;18.80;1.00;;;;;;6120215;23;20157;-94
2022/08/28 01:16:24;;;;;;;4.87;1.97;;;18.70;1.00;;;;;;6110720;23;20158;-95
2022/08/28 01:18:51;;;;;;;11.37;3.00;;;18.90;1.00;;;;;;6103704;23;20155;-94
2022/08/28 01:21:45;;;;;;;6.20;2.60;;;18.70;1.00;;;;;;6103298;23;20154;-93
2022/08/28 01:24:15;;;;;;;6.73;2.20;;;18.70;1.00;;;;;;6108065;23;20612;-94
2022/08/28 01:26:42;;;;;;;5.70;2.40;;;18.70;1.00;;;;;;6110689;23;20156;-93
2022/08/28 01:29:12;;;;;;;6.10;2.50;;;18.60;1.00;;;;;;6104421;23;20179;-91
2022/08/28 01:31:39;;;;;;;6.17;2.17;;;18.60;1.00;;;;;;6103883;23;20206;-92
2022/08/28 01:34:06;;;;;;;4.30;2.20;;;18.60;1.00;;;;;;6103957;23;20492;-94
2022/08/28 01:36:34;;;;;;;6.20;2.23;;;18.60;1.00;;;;;;6104233;23;20162;-93
2022/08/28 01:39:17;;;;;;;4.23;2.00;;;18.60;1.00;;;;;;6084926;23;20183;-95
2022/08/28 01:41:46;;;;;;;6.80;2.50;;;18.60;1.00;;;;;;6107369;23;20151;-93
2022/08/28 01:44:14;;;;;;;5.60;2.10;;;18.60;1.00;;;;;;6135525;23;20150;-95
2022/08/28 01:46:42;;;;;;;7.73;2.30;;;18.60;1.00;;;;;;6143542;23;20150;-94
2022/08/28 01:49:10;;;;;;;8.80;2.00;;;18.60;1.00;;;;;;6126354;23;20180;-93
2022/08/28 01:51:38;;;;;;;7.87;2.50;;;18.50;1.00;;;;;;6104017;23;20171;-93
2022/08/28 01:54:05;;;;;;;7.10;2.43;;;18.40;1.00;;;;;;6154125;23;20213;-92
2022/08/28 01:56:34;;;;;;;4.93;2.07;;;18.40;1.00;;;;;;6124467;23;20161;-94
2022/08/28 01:59:04;;;;;;;7.00;2.37;;;18.40;1.00;;;;;;6110532;23;20214;-93
2022/08/28 02:04:52;;;;;;;5.20;2.40;;;18.40;1.00;;;;;;6128221;23;20170;-94
2022/08/28 02:07:19;;;;;;;9.77;2.30;;;18.40;1.00;;;;;;6101764;23;20155;-95
2022/08/28 02:09:46;;;;;;;7.00;2.50;;;18.30;1.00;;;;;;6103137;23;20163;-94
2022/08/28 02:12:12;;;;;;;6.57;2.13;;;18.20;1.00;;;;;;6120721;23;20167;-94
2022/08/28 02:14:43;;;;;;;5.63;2.60;;;18.20;1.00;;;;;;6129389;23;20198;-93
2022/08/28 02:17:44;;;;;;;5.67;1.93;;;18.20;1.00;;;;;;6130165;23;20145;-93
2022/08/28 02:20:20;;;;;;;5.67;2.10;;;18.20;1.00;;;;;;6114610;23;20294;-93
2022/08/28 02:22:49;;;;;;;5.80;2.20;;;18.20;1.00;;;;;;6110060;23;20160;-93
2022/08/28 02:25:15;;;;;;;5.63;2.80;;;18.20;1.00;;;;;;6110300;23;20151;-93
2022/08/28 02:27:44;;;;;;;8.87;2.80;;;18.10;1.00;;;;;;6112894;23;20631;-93
2022/08/28 02:30:12;;;;;;;6.13;2.60;;;18.20;1.00;;;;;;6081712;23;20154;-92
2022/08/28 02:32:38;;;;;;;5.53;2.80;;;18.20;1.00;;;;;;6105270;23;20159;-94
2022/08/28 02:35:07;;;;;;;8.20;2.87;;;18.10;1.00;;;;;;6105798;23;20223;-93
2022/08/28 02:37:33;;;;;;;7.87;2.87;;;18.20;1.00;;;;;;6104277;23;20481;-92
2022/08/28 02:39:59;;;;;;;7.80;3.23;;;18.10;1.00;;;;;;6104363;23;20178;-92
2022/08/28 02:42:25;;;;;;;7.67;2.80;;;18.10;1.00;;;;;;6106067;23;20462;-93
2022/08/28 02:44:51;;;;;;;6.63;2.90;;;18.10;1.00;;;;;;6109383;23;20167;-96
2022/08/28 02:47:18;;;;;;;9.07;3.20;;;18.20;1.00;;;;;;6113006;23;20234;-93
2022/08/28 02:49:53;;;;;;;5.23;2.70;;;18.30;1.00;;;;;;6121160;23;20171;-95
2022/08/28 02:52:22;;;;;;;6.40;2.73;;;18.10;1.00;;;;;;6114998;23;20139;-93
2022/08/28 02:54:49;;;;;;;7.53;3.17;;;18.00;1.00;;;;;;6118738;23;20222;-91
2022/08/28 02:57:15;;;;;;;6.67;3.10;;;18.00;1.00;;;;;;6113799;23;20212;-94
2022/08/28 02:59:42;;;;;;;8.40;3.60;;;18.00;1.00;;;;;;6127970;23;20151;-93
2022/08/28 03:02:07;;;;;;;9.07;3.60;;;18.00;1.00;;;;;;6127781;23;20164;-93
2022/08/28 03:04:35;;;;;;;8.27;3.60;;;17.90;1.00;;;;;;6104170;23;20169;-93
2022/08/28 03:07:03;;;;;;;6.23;3.13;;;18.00;1.00;;;;;;6129990;23;20148;-94
2022/08/28 03:09:29;;;;;;;8.90;3.47;;;18.00;1.00;;;;;;6129541;23;20173;-92
2022/08/28 03:11:55;;;;;;;8.57;3.90;;;18.00;1.00;;;;;;6130033;23;20175;-93
2022/08/28 03:14:25;;;;;;;8.90;3.27;;;17.90;1.00;;;;;;6130450;23;20155;-92
2022/08/28 03:16:53;;;;;;;8.13;3.40;;;17.90;1.00;;;;;;6118163;23;20171;-92
2022/08/28 03:19:23;;;;;;;5.23;3.33;;;17.90;1.00;;;;;;6108262;23;20158;-94
2022/08/28 03:21:52;;;;;;;9.40;3.40;;;17.80;1.00;;;;;;6104397;23;20151;-92
2022/08/28 03:24:27;;;;;;;7.63;3.90;;;17.80;1.00;;;;;;6104832;23;20151;-93
2022/08/28 03:27:09;;;;;;;7.47;3.50;;;17.70;1.00;;;;;;6105564;23;20159;-93
2022/08/28 03:29:35;;;;;;;10.47;4.23;;;17.70;1.00;;;;;;6113070;23;20182;-94
2022/08/28 03:32:01;;;;;;;10.43;3.73;;;17.70;1.00;;;;;;6112254;23;20209;-93
2022/08/28 03:34:27;;;;;;;7.63;3.60;;;17.70;1.00;;;;;;6104241;23;20174;-95
2022/08/28 03:36:53;;;;;;;9.03;3.87;;;17.70;1.00;;;;;;6104991;23;20147;-94
2022/08/28 03:39:20;;;;;;;7.10;3.30;;;17.70;1.00;;;;;;6103875;23;20155;-94
2022/08/28 03:41:46;;;;;;;6.30;3.53;;;17.70;1.00;;;;;;6104173;23;20181;-94
2022/08/28 03:44:11;;;;;;;8.87;4.20;;;17.70;1.00;;;;;;6105170;23;20166;-93
2022/08/28 03:46:38;;;;;;;11.10;4.30;;;17.70;1.00;;;;;;6103863;23;20147;-93
2022/08/28 03:49:04;;;;;;;13.90;4.57;;;17.70;1.00;;;;;;6103432;23;20184;-92
2022/08/28 03:51:32;;;;;;;9.60;4.10;;;17.60;1.00;;;;;;6103533;23;20181;-95
2022/08/28 03:53:59;;;;;;;9.93;4.30;;;17.60;1.00;;;;;;6103432;23;20151;-94
2022/08/28 03:56:27;;;;;;;12.40;4.43;;;17.70;1.00;;;;;;6103657;23;20149;-93
2022/08/28 03:58:56;;;;;;;9.53;4.30;;;17.60;1.00;;;;;;6103038;23;20537;-94
2022/08/28 04:01:24;;;;;;;9.23;3.87;;;17.60;1.00;;;;;;6103486;23;20238;-93
2022/08/28 04:03:50;;;;;;;11.90;4.10;;;17.60;1.00;;;;;;6103024;23;20159;-93
2022/08/28 04:06:18;;;;;;;12.57;4.30;;;17.50;1.00;;;;;;6103267;23;20627;-93
2022/08/28 04:08:46;;;;;;;7.70;3.90;;;17.40;1.00;;;;;;6104121;23;20184;-93
2022/08/28 04:11:11;;;;;;;9.17;4.50;;;17.40;1.00;;;;;;6103465;23;20177;-94
2022/08/28 04:13:37;;;;;;;11.80;4.50;;;17.40;1.00;;;;;;6103655;23;20227;-93
2022/08/28 04:16:15;;;;;;;12.77;4.17;;;17.40;1.00;;;;;;6103549;23;20155;-93
2022/08/28 04:18:42;;;;;;;8.43;4.53;;;17.40;1.00;;;;;;6105259;23;20147;-93
2022/08/28 04:21:17;;;;;;;11.20;3.87;;;17.40;1.00;;;;;;6105858;23;20207;-93
2022/08/28 04:23:44;;;;;;;9.93;4.23;;;17.40;1.00;;;;;;6106423;23;20212;-94
2022/08/28 04:26:13;;;;;;;10.57;4.13;;;17.40;1.00;;;;;;6105632;23;20230;-94
2022/08/28 04:28:41;;;;;;;10.77;4.27;;;17.40;1.00;;;;;;6103845;23;20209;-94
2022/08/28 04:31:10;;;;;;;12.20;4.17;;;17.40;1.00;;;;;;6103287;23;20152;-95
2022/08/28 04:33:36;;;;;;;13.53;4.53;;;17.50;1.00;;;;;;6103041;23;20603;-93
2022/08/28 04:36:05;;;;;;;11.07;4.43;;;17.50;1.00;;;;;;6104366;23;20222;-93
2022/08/28 04:38:31;;;;;;;8.50;4.13;;;17.50;1.00;;;;;;6103696;23;20157;-93
2022/08/28 04:40:57;;;;;;;9.57;3.97;;;17.40;1.00;;;;;;6109509;23;20155;-95
2022/08/28 04:43:23;;;;;;;12.07;4.77;;;17.30;1.00;;;;;;6128652;23;20140;-94
2022/08/28 04:45:49;;;;;;;10.07;4.23;;;17.30;1.00;;;;;;6128466;23;20195;-94
2022/08/28 04:48:14;;;;;;;8.97;3.87;;;17.30;1.00;;;;;;6129123;23;20170;-95
2022/08/28 04:50:45;;;;;;;11.03;3.80;;;17.30;1.00;;;;;;6109293;23;20147;-96
2022/08/28 04:53:17;;;;;;;9.80;3.60;;;17.30;1.00;;;;;;6106305;23;20155;-96
2022/08/28 04:55:47;;;;;;;11.77;3.90;;;17.20;1.00;;;;;;6105647;23;20209;-96
2022/08/28 04:58:14;;;;;;;9.20;4.00;;;17.10;1.00;;;;;;6084607;23;20175;-96
2022/08/28 05:00:46;;;;;;;10.23;3.60;;;17.10;1.00;;;;;;6089929;23;20179;-94
2022/08/28 05:03:12;;;;;;;11.20;4.03;;;17.10;1.00;;;;;;6104338;23;20182;-93
2022/08/28 05:05:43;;;;;;;9.97;3.50;;;17.20;1.00;;;;;;6128388;23;20191;-93
2022/08/28 05:08:10;;;;;;;9.00;3.87;;;17.30;1.00;;;;;;6148076;23;20255;-95
2022/08/28 05:10:40;;;;;;;10.03;3.80;;;17.10;1.00;;;;;;6106196;23;20202;-93
2022/08/28 05:13:44;;;;;;;7.57;3.37;;;17.10;1.00;;;;;;6079408;23;20234;-93
2022/08/28 05:16:11;;;;;;;13.20;3.57;;;17.00;1.00;;;;;;6079683;23;20172;-91
2022/08/28 05:18:37;;;;;;;15.03;4.30;;;17.00;1.00;;;;;;6102960;23;20158;-94
2022/08/28 05:21:03;;;;;;;8.17;3.67;;;17.10;1.00;;;;;;6102551;23;20238;-94
2022/08/28 05:23:30;;;;;;;8.90;3.73;;;17.20;1.00;;;;;;6103318;23;20152;-93
2022/08/28 05:25:57;;;;;;;10.47;3.33;;;17.10;1.00;;;;;;6105481;23;20234;-92
2022/08/28 05:28:23;;;;;;;8.63;3.73;;;17.00;1.00;;;;;;6104623;23;20184;-94
2022/08/28 05:30:49;;;;;;;9.67;3.70;;;17.00;1.00;;;;;;6109936;23;20166;-92
2022/08/28 05:33:15;;;;;;;9.03;3.33;;;17.00;1.00;;;;;;6106491;23;20155;-92
2022/08/28 05:35:44;;;;;;;9.73;3.50;;;16.90;1.00;;;;;;6108315;23;20276;-92
2022/08/28 05:38:14;;;;;;;9.10;3.80;;;16.90;1.00;;;;;;6112637;23;20183;-93
2022/08/28 05:40:42;;;;;;;8.97;3.57;;;16.90;1.00;;;;;;6121454;23;20156;-93
2022/08/28 05:43:09;;;;;;;9.27;3.27;;;17.00;1.00;;;;;;6113483;23;20186;-91
2022/08/28 05:45:34;;;;;;;8.13;3.60;;;17.00;1.00;;;;;;6115642;23;20155;-91
2022/08/28 05:48:00;;;;;;;10.53;3.70;;;17.10;1.00;;;;;;6116531;23;20190;-92
2022/08/28 05:50:26;;;;;;;9.97;4.63;;;17.10;1.00;;;;;;6128333;23;20158;-92
2022/08/28 05:52:52;;;;;;;10.63;3.87;;;17.10;1.00;;;;;;6129447;23;20182;-93
2022/08/28 05:55:18;;;;;;;9.63;3.27;;;17.20;1.00;;;;;;6128629;23;20187;-93
2022/08/28 05:57:43;;;;;;;11.03;3.63;;;17.20;1.00;;;;;;6123559;23;20150;-94
2022/08/28 06:00:12;;;;;;;8.47;3.37;;;17.20;1.00;;;;;;6119391;23;20187;-95
2022/08/28 06:02:41;;;;;;;8.77;3.70;;;17.20;1.00;;;;;;6105738;23;20159;-93
2022/08/28 06:05:44;;;;;;;19.63;3.60;;;17.20;1.00;;;;;;6109113;23;20158;-94
2022/08/28 06:08:12;;;;;;;5.67;2.63;;;17.20;1.00;;;;;;6139826;23;20307;-96
2022/08/28 06:10:44;;;;;;;9.87;2.73;;;17.10;1.00;;;;;;6110686;23;20155;-95
2022/08/28 06:13:10;;;;;;;9.20;3.10;;;17.10;1.00;;;;;;6108378;23;20633;-95
2022/08/28 06:15:45;;;;;;;8.30;3.40;;;17.00;1.00;;;;;;6109418;23;20172;-95
2022/08/28 06:18:13;;;;;;;8.03;2.77;;;17.00;1.00;;;;;;6126560;23;20140;-92
2022/08/28 06:20:42;;;;;;;8.00;3.20;;;17.00;1.00;;;;;;6106741;23;20158;-93
2022/08/28 06:23:14;;;;;;;7.07;2.80;;;17.10;1.00;;;;;;6129720;23;20482;-92
2022/08/28 06:25:47;;;;;;;7.00;2.93;;;17.10;1.00;;;;;;6130154;23;20135;-93
2022/08/28 06:28:20;;;;;;;10.03;3.20;;;17.10;1.00;;;;;;6129715;23;20200;-93
2022/08/28 06:30:46;;;;;;;5.17;2.67;;;17.10;1.00;;;;;;6128516;23;20159;-92
2022/08/28 06:33:15;;;;;;;9.57;2.90;;;16.90;1.00;;;;;;6116514;23;20155;-94
2022/08/28 06:35:46;;;;;;;9.53;2.90;;;17.00;1.00;;;;;;6115201;23;20615;-94
2022/08/28 06:38:13;;;;;;;10.87;3.20;;;17.10;1.00;;;;;;6113207;23;20157;-95
2022/08/28 06:40:41;;;;;;;8.17;2.87;;;17.20;1.00;;;;;;6115464;23;20151;-93
2022/08/28 06:43:08;;;;;;;4.80;2.57;;;17.20;1.00;;;;;;6089097;23;20162;-92
2022/08/28 06:45:39;;;;;;;8.60;2.60;;;17.20;1.00;;;;;;6111669;23;20156;-94
2022/08/28 06:48:09;;;;;;;6.23;2.87;;;17.20;1.00;;;;;;6105145;23;20188;-93
2022/08/28 06:50:49;;;;;;;10.13;2.90;;;17.30;1.00;;;;;;6105096;23;20162;-92
2022/08/28 06:53:17;;;;;;;11.63;3.43;;;17.40;1.00;;;;;;6106644;23;20516;-92
2022/08/28 06:55:44;;;;;;;9.60;3.30;;;17.50;1.00;;;;;;6105894;23;20594;-93
2022/08/28 06:58:12;;;;;;;9.30;2.83;;;17.70;1.00;;;;;;6106884;23;20154;-93
2022/08/28 07:00:39;;;;;;;9.17;2.63;;;17.80;1.00;;;;;;6110752;23;20147;-93
2022/08/28 07:03:11;;;;;;;8.57;2.63;;;17.80;1.00;;;;;;6116517;23;20150;-96
2022/08/28 07:05:38;;;;;;;7.37;2.57;;;17.70;1.00;;;;;;6104830;23;20162;-94
2022/08/28 07:08:03;;;;;;;9.70;2.67;;;17.60;1.00;;;;;;6105559;23;20583;-93
2022/08/28 07:10:30;;;;;;;12.43;3.03;;;17.50;1.00;;;;;;6105852;23;20146;-95
2022/08/28 07:12:56;;;;;;;10.07;2.90;;;17.30;1.00;;;;;;6106379;23;20175;-94
2022/08/28 07:15:22;;;;;;;9.40;2.87;;;17.20;1.00;;;;;;6106204;23;20178;-96
2022/08/28 07:17:50;;;;;;;9.17;2.60;;;17.20;1.00;;;;;;6105401;23;20484;-93
2022/08/28 07:20:16;;;;;;;7.83;3.00;;;17.30;1.00;;;;;;6108887;23;20179;-93
2022/08/28 07:22:42;;;;;;;11.73;3.10;;;17.30;1.00;;;;;;6132131;23;20147;-95
2022/08/28 07:25:09;;;;;;;12.13;3.20;;;17.40;1.00;;;;;;6105747;23;20153;-94
2022/08/28 07:27:37;;;;;;;10.37;2.70;;;17.40;1.00;;;;;;6106613;23;20159;-93
2022/08/28 07:30:05;;;;;;;11.33;2.90;;;17.50;1.00;;;;;;6118455;23;20183;-94
2022/08/28 07:32:31;;;;;;;9.20;2.80;;;17.60;1.00;;;;;;6128409;23;20149;-93
2022/08/28 07:34:58;;;;;;;9.87;2.93;;;17.70;1.00;;;;;;6128824;23;20196;-93
2022/08/28 07:37:24;;;;;;;10.90;3.27;;;17.80;1.00;;;;;;6125745;23;20140;-93
2022/08/28 07:39:57;;;;;;;7.57;2.63;;;18.00;1.00;;;;;;6119367;23;20151;-93
2022/08/28 07:45:12;;;;;;;6.57;2.27;;;17.90;1.00;;;;;;6139974;23;20621;-92
2022/08/28 07:47:37;;;;;;;10.03;2.83;;;17.80;1.00;;;;;;6110675;23;20151;-90
2022/08/28 07:50:06;;;;;;;4.37;2.30;;;17.90;1.00;;;;;;6106939;23;20162;-92
2022/08/28 07:52:32;;;;;;;11.23;2.80;;;18.00;1.00;;;;;;6102258;23;20160;-93
2022/08/28 07:54:58;;;;;;;5.40;2.40;;;17.90;1.00;;;;;;6129431;23;20151;-92
2022/08/28 07:57:23;;;;;;;7.40;2.40;;;17.90;1.00;;;;;;6128897;23;20139;-91
2022/08/28 07:59:52;;;;;;;4.93;2.63;;;17.90;1.00;;;;;;6119899;23;20159;-93
2022/08/28 08:02:35;;;;;;;5.93;2.37;;;18.20;1.00;;;;;;6117199;23;20153;-93
2022/08/28 08:05:01;;;;;;;11.73;3.10;;;18.30;1.00;;;;;;6107288;23;20620;-92
2022/08/28 08:07:27;;;;;;;10.20;2.83;;;18.30;1.00;;;;;;6105868;23;20147;-92
2022/08/28 08:10:13;;;;;;;8.23;3.00;;;18.20;1.00;;;;;;6108042;23;20295;-95
2022/08/28 08:12:41;;;;;;;10.63;3.43;;;18.40;1.00;;;;;;6088097;23;20509;-91
2022/08/28 08:15:09;;;;;;;7.90;2.80;;;18.50;1.00;;;;;;6082645;23;20170;-92
2022/08/28 08:17:34;;;;;;;6.57;2.20;;;18.60;1.00;;;;;;6136742;23;20658;-93
2022/08/28 08:20:00;;;;;;;8.70;2.63;;;18.50;1.00;;;;;;6112680;23;20187;-93
2022/08/28 08:22:26;;;;;;;9.03;2.47;;;18.60;1.00;;;;;;6110633;23;20174;-91
2022/08/28 08:24:54;;;;;;;5.47;2.30;;;18.70;1.00;;;;;;6112003;23;20215;-93
2022/08/28 08:27:20;;;;;;;9.83;2.63;;;18.70;1.00;;;;;;6112385;23;20150;-93
2022/08/28 08:29:46;;;;;;;7.83;2.40;;;18.70;1.00;;;;;;6109283;23;20216;-92
2022/08/28 08:32:12;;;;;;;7.07;2.53;;;18.80;1.00;;;;;;6109115;23;20151;-93
2022/08/28 08:34:41;;;;;;;11.77;2.93;;;18.80;1.00;;;;;;6107357;23;20212;-92
2022/08/28 08:37:10;;;;;;;7.40;2.10;;;18.90;1.00;;;;;;6104622;23;20487;-92
2022/08/28 08:39:36;;;;;;;9.30;2.80;;;18.90;1.00;;;;;;6107593;23;20149;-93
2022/08/28 08:42:06;;;;;;;7.57;2.73;;;18.80;1.00;;;;;;6106735;23;20156;-93
2022/08/28 08:44:33;;;;;;;6.67;3.07;;;18.90;1.00;;;;;;6105095;23;20161;-93
2022/08/28 08:47:27;;;;;;;5.57;1.90;;;19.00;1.00;;;;;;6105795;23;20154;-93
2022/08/28 08:50:02;;;;;;;6.07;2.80;;;18.90;1.00;;;;;;6108817;23;20221;-93
2022/08/28 08:52:44;;;;;;;5.90;2.43;;;18.80;1.00;;;;;;6109732;23;20479;-94
2022/08/28 08:55:26;;;;;;;5.17;2.50;;;18.80;1.00;;;;;;6140174;23;20155;-93
2022/08/28 08:58:05;;;;;;;7.33;2.40;;;18.80;1.00;;;;;;6114171;23;20201;-92
2022/08/28 09:00:37;;;;;;;8.63;2.37;;;19.10;1.00;;;;;;6114212;23;20150;-93
2022/08/28 09:03:14;;;;;;;4.77;2.40;;;19.10;1.00;;;;;;6138156;23;20240;-93
2022/08/28 09:06:04;;;;;;;9.17;2.93;;;19.30;1.00;;;;;;6111749;23;20171;-92
2022/08/28 09:08:39;;;;;;;8.33;2.43;;;19.50;1.00;;;;;;6117421;23;20200;-92
2022/08/28 09:11:28;;;;;;;6.73;2.60;;;19.50;99.90;;;;;;6126745;23;20176;-93
2022/08/28 09:14:15;;;;;;;6.93;3.10;;;19.60;99.90;;;;;;6152343;23;20132;-91
2022/08/28 09:16:43;;;;;;;7.33;2.80;;;19.70;99.90;;;;;;6149801;23;20165;-93
2022/08/28 09:19:13;;;;;;;7.53;2.50;;;19.70;99.90;;;;;;6126968;23;20195;-95
2022/08/28 09:21:44;;;;;;;8.37;2.67;;;19.70;99.90;;;;;;6127041;23;20172;-93
2022/08/28 09:24:31;;;;;;;7.10;2.80;;;19.80;99.90;;;;;;6127890;23;20171;-93
2022/08/28 09:27:02;;;;;;;9.00;2.53;;;19.90;99.90;;;;;;6128245;23;20138;-94
2022/08/28 09:29:52;;;;;;;5.77;2.57;;;19.80;99.90;;;;;;6113263;23;20216;-94
2022/08/28 09:32:33;;;;;;;8.83;2.50;;;19.70;99.90;;;;;;6111079;23;20145;-94
2022/08/28 09:35:12;;;;;;;7.17;2.40;;;19.90;99.90;;;;;;6111008;23;20152;-93
2022/08/28 09:37:42;;;;;;;7.20;3.13;;;20.10;99.90;;;;;;6136085;23;20165;-93
2022/08/28 09:43:27;;;;;;;6.50;2.43;;;20.10;99.90;;;;;;6132274;23;20200;-93
2022/08/28 09:46:22;;;;;;;4.53;2.33;;;20.00;99.90;;;;;;6106202;23;20169;-93
2022/08/28 09:48:53;;;;;;;10.07;2.33;;;20.00;99.90;;;;;;6104772;23;20283;-93
2022/08/28 09:51:28;;;;;;;8.70;2.70;;;20.10;99.90;;;;;;6105616;23;20240;-94
2022/08/28 09:54:33;;;;;;;3.93;1.67;;;20.30;99.90;;;;;;6085094;23;20233;-93
2022/08/28 09:57:00;;;;;;;7.23;2.53;;;20.30;1.00;;;;;;6104909;23;20161;-94
2022/08/28 09:59:27;;;;;;;7.33;2.47;;;20.10;52.20;;;;;;6109307;23;20176;-94
2022/08/28 10:02:22;;;;;;;6.40;1.90;;;20.30;99.90;;;;;;6108481;23;20150;-93
2022/08/28 10:05:04;;;;;;;3.47;1.93;;;20.40;27.80;;;;;;6117762;23;20147;-93
2022/08/28 10:07:48;;;;;;;8.80;2.23;;;20.60;1.00;;;;;;6125479;23;20161;-94
2022/08/28 10:10:39;;;;;;;8.03;2.53;;;20.50;84.30;;;;;;6124564;23;20179;-94
2022/08/28 10:13:34;;;;;;;6.80;2.13;;;20.50;1.00;;;;;;6121661;23;20155;-92
2022/08/28 10:16:09;;;;;;;7.37;2.90;;;20.70;1.00;;;;;;6128270;23;20163;-93
2022/08/28 10:19:14;;;;;;;5.67;2.27;;;20.80;1.00;;;;;;6152492;23;20174;-92
2022/08/28 10:22:21;;;;;;;8.80;2.43;;;20.80;1.00;;;;;;6151109;23;20127;-93
2022/08/28 10:25:29;;;;;;;4.67;2.03;;;20.90;1.00;;;;;;6125600;23;20155;-94
2022/08/28 10:28:12;;;;;;;8.23;2.70;;;20.90;99.90;;;;;;6096726;23;20189;-95
2022/08/28 10:30:48;;;;;;;6.00;1.93;;;20.90;99.90;;;;;;6134141;23;20151;-94
2022/08/28 10:33:19;;;;;;;9.83;2.30;;;20.90;99.90;;;;;;6111601;23;20234;-94
2022/08/28 10:35:57;;;;;;;4.80;2.17;;;21.00;1.00;;;;;;6134315;23;20143;-94
2022/08/28 10:38:45;;;;;;;7.23;2.47;;;21.10;99.90;;;;;;6106472;23;20159;-94
2022/08/28 10:41:28;;;;;;;9.53;2.60;;;20.90;45.70;;;;;;6120594;23;20170;-94
2022/08/28 10:44:09;;;;;;;7.03;2.30;;;21.10;99.90;;;;;;6130094;23;20138;-94
2022/08/28 10:46:45;;;;;;;5.50;2.07;;;21.30;1.00;;;;;;6108307;23;20157;-92
2022/08/28 10:49:32;;;;;;;3.83;1.80;;;21.00;99.90;;;;;;6092134;23;20203;-94
2022/08/28 10:52:11;;;;;;;4.80;1.80;;;21.00;1.00;;;;;;6134316;23;20135;-94
2022/08/28 10:54:51;;;;;;;7.53;2.13;;;21.10;1.00;;;;;;6111057;23;20156;-95
2022/08/28 10:57:39;;;;;;;5.83;2.20;;;21.20;56.80;;;;;;6108850;23;20193;-93
2022/08/28 11:00:20;;;;;;;8.10;2.73;;;21.20;99.90;;;;;;6118315;23;20147;-94
2022/08/28 11:02:53;;;;;;;8.63;2.73;;;21.20;17.10;;;;;;6154495;23;20229;-95
2022/08/28 11:05:24;;;;;;;6.63;2.17;;;21.40;99.90;;;;;;6123582;23;20182;-95
2022/08/28 11:08:04;;;;;;;7.60;2.33;;;21.40;99.90;;;;;;6108370;23;20180;-93
2022/08/28 11:10:52;;;;;;;6.40;2.63;;;21.40;31.00;;;;;;6108196;23;20158;-95
2022/08/28 11:13:48;;;;;;;6.03;2.13;;;21.50;29.30;;;;;;6106733;23;20152;-94
2022/08/28 11:16:32;;;;;;;9.93;2.43;;;21.60;1.00;;;;;;6118056;23;20151;-95
2022/08/28 11:19:38;;;;;;;6.00;2.47;;;21.70;1.00;;;;;;6112849;23;20163;-94
2022/08/28 11:22:20;;;;;;;6.40;1.80;;;21.50;1.00;;;;;;6109619;23;20235;-94
2022/08/28 11:25:13;;;;;;;5.30;2.07;;;21.50;1.00;;;;;;6110856;23;20584;-94
2022/08/28 11:27:59;;;;;;;4.03;1.60;;;21.60;1.00;;;;;;6134317;23;20155;-94
2022/08/28 11:30:31;;;;;;;3.80;1.63;;;21.50;99.90;;;;;;6107996;23;20163;-93
2022/08/28 11:33:04;;;;;;;5.17;2.00;;;21.50;99.90;;;;;;6135313;23;20143;-95
2022/08/28 11:35:49;;;;;;;6.37;2.23;;;21.70;1.00;;;;;;6110846;23;20147;-95
2022/08/28 11:38:46;;;;;;;6.33;2.30;;;21.80;1.00;;;;;;6139442;23;20167;-95
2022/08/28 11:41:26;;;;;;;6.77;1.90;;;21.70;99.90;;;;;;6083457;23;20191;-95
2022/08/28 11:44:12;;;;;;;13.67;2.60;;;21.80;1.00;;;;;;6113544;23;20191;-94
2022/08/28 11:46:50;;;;;;;7.50;2.00;;;21.90;99.90;;;;;;6133487;23;20156;-93
2022/08/28 11:49:32;;;;;;;5.70;1.90;;;22.10;99.90;;;;;;6109464;23;20202;-94
2022/08/28 11:52:23;;;;;;;5.30;1.80;;;22.00;1.00;;;;;;6134969;23;20155;-94
2022/08/28 11:54:54;;;;;;;7.23;2.00;;;21.90;1.00;;;;;;6112257;23;20152;-94
2022/08/28 11:57:48;;;;;;;7.80;2.03;;;21.90;1.00;;;;;;6135296;23;20155;-94
2022/08/28 12:00:40;;;;;;;4.70;1.97;;;22.10;99.90;;;;;;6114081;23;20239;-93
2022/08/28 12:03:22;;;;;;;6.23;1.83;;;22.20;99.90;;;;;;6137202;23;20524;-94
2022/08/28 12:05:53;;;;;;;6.70;1.87;;;22.30;99.90;;;;;;6134663;23;20145;-94
2022/08/28 12:08:45;;;;;;;3.87;1.80;;;22.40;1.00;;;;;;6110142;23;20260;-93
2022/08/28 12:11:40;;;;;;;6.03;2.10;;;22.60;99.90;;;;;;6143627;23;20152;-93
2022/08/28 12:14:27;;;;;;;4.87;1.70;;;22.60;99.90;;;;;;6110143;23;20152;-93
2022/08/28 12:17:17;;;;;;;6.50;1.80;;;22.30;1.00;;;;;;6133285;23;20261;-93
2022/08/28 12:19:48;;;;;;;8.57;1.80;;;22.40;1.00;;;;;;6082871;23;20156;-93
2022/08/28 12:22:21;;;;;;;4.77;2.00;;;22.40;99.90;;;;;;6110333;23;20151;-93
2022/08/28 12:24:55;;;;;;;5.23;1.80;;;22.40;1.00;;;;;;6111238;23;20176;-93
2022/08/28 12:27:22;;;;;;;6.63;2.13;;;22.30;1.00;;;;;;6108412;23;20154;-94
2022/08/28 12:29:59;;;;;;;4.60;1.80;;;22.40;19.90;;;;;;6105074;23;20531;-94
2022/08/28 12:32:42;;;;;;;6.27;1.53;;;22.40;53.90;;;;;;6133106;23;20150;-94
2022/08/28 12:35:18;;;;;;;4.27;1.90;;;22.40;99.90;;;;;;6133263;23;20156;-94
2022/08/28 12:38:03;;;;;;;9.43;1.93;;;22.50;47.30;;;;;;6135485;23;20172;-94
2022/08/28 12:40:52;;;;;;;5.00;1.73;;;22.60;1.00;;;;;;6109548;23;20157;-93
2022/08/28 12:43:37;;;;;;;3.27;1.60;;;22.50;99.90;;;;;;6135175;23;20484;-95
2022/08/28 12:46:08;;;;;;;6.13;1.83;;;22.30;1.00;;;;;;6109551;23;20240;-95
2022/08/28 12:48:49;;;;;;;9.13;1.97;;;22.50;1.00;;;;;;6086042;23;20232;-94
2022/08/28 12:51:21;;;;;;;6.07;1.63;;;22.60;99.90;;;;;;6107304;23;20160;-96
2022/08/28 12:53:54;;;;;;;6.63;1.47;;;22.80;1.00;;;;;;6105708;23;20162;-94
2022/08/28 12:56:23;;;;;;;3.20;1.40;;;22.80;99.90;;;;;;6082428;23;20182;-95
2022/08/28 12:58:49;;;;;;;6.47;2.10;;;22.70;1.00;;;;;;6083807;23;20154;-94
2022/08/28 13:01:34;;;;;;;3.00;1.40;;;22.80;99.90;;;;;;6107678;23;20252;-94
2022/08/28 13:04:23;;;;;;;4.57;1.80;;;22.80;99.90;;;;;;6089396;23;20165;-94
2022/08/28 13:06:59;;;;;;;7.37;1.50;;;22.90;99.90;;;;;;6134262;23;20154;-94
2022/08/28 13:09:28;;;;;;;7.57;2.07;;;22.90;99.90;;;;;;6118052;23;20213;-94
2022/08/28 13:11:54;;;;;;;6.60;1.90;;;22.70;1.00;;;;;;6103947;23;20181;-92
2022/08/28 13:14:42;;;;;;;5.00;1.27;;;22.80;1.00;;;;;;6152413;23;20157;-93
2022/08/28 13:17:11;;;;;;;5.43;1.70;;;22.90;1.00;;;;;;6088225;23;20198;-94
2022/08/28 13:19:41;;;;;;;6.03;2.00;;;22.90;99.90;;;;;;6079274;23;20154;-94
2022/08/28 13:22:38;;;;;;;3.43;1.30;;;23.00;1.00;;;;;;6081916;23;20170;-95
2022/08/28 13:25:06;;;;;;;3.97;1.47;;;23.00;1.00;;;;;;6094011;23;20210;-95
2022/08/28 13:27:33;;;;;;;6.13;1.40;;;23.10;99.90;;;;;;6077464;23;20162;-95
2022/08/28 13:30:19;;;;;;;5.37;1.90;;;23.10;99.90;;;;;;6091555;23;20170;-93
2022/08/28 13:33:15;;;;;;;5.00;1.97;;;23.30;1.00;;;;;;6121996;23;20178;-95
2022/08/28 13:35:41;;;;;;;4.03;1.53;;;23.10;94.10;;;;;;6098567;23;20152;-94
2022/08/28 13:38:12;;;;;;;5.03;1.60;;;23.10;21.70;;;;;;6084259;23;20543;-94